sensor_id;sensor_type;location;lat;lon;timestamp;P1;durP1;ratioP1;P2;durP2;ratioP2
60336;SDS011;46978;50.288;28.624;2023-08-24T00:00:18;5.87;;;4.09;;
60336;SDS011;46978;50.288;28.624;2023-08-24T00:01:20;7.87;;;4.21;;
60336;SDS011;46978;50.288;28.624;2023-08-24T00:02:22;8.97;;;4.64;;
60336;SDS011;46978;50.288;28.624;2023-08-24T00:03:23;6.44;;;4.01;;
60336;SDS011;46978;50.288;28.624;2023-08-24T00:04:25;7.61;;;4.31;;
60336;SDS011;46978;50.288;28.624;2023-08-24T00:05:27;10.02;;;4.46;;
60336;SDS011;46978;50.288;28.624;2023-08-24T00:06:29;8.98;;;4.56;;
60336;SDS011;46978;50.288;28.624;2023-08-24T00:07:30;7.44;;;4.05;;
60336;SDS011;46978;50.288;28.624;2023-08-24T00:08:32;9.51;;;4.17;;
60336;SDS011;46978;50.288;28.624;2023-08-24T00:09:34;7.84;;;3.82;;
60336;SDS011;46978;50.288;28.624;2023-08-24T00:10:35;12.05;;;4.28;;
60336;SDS011;46978;50.288;28.624;2023-08-24T00:11:38;6.83;;;4.39;;
60336;SDS011;46978;50.288;28.624;2023-08-24T00:12:40;6.49;;;4.24;;
60336;SDS011;46978;50.288;28.624;2023-08-24T00:13:42;6.39;;;3.98;;
60336;SDS011;46978;50.288;28.624;2023-08-24T00:14:45;10.27;;;4.53;;
60336;SDS011;46978;50.288;28.624;2023-08-24T00:15:46;8.56;;;4.13;;
60336;SDS011;46978;50.288;28.624;2023-08-24T00:16:48;6.95;;;4.09;;
60336;SDS011;46978;50.288;28.624;2023-08-24T00:17:50;7.04;;;4.11;;
60336;SDS011;46978;50.288;28.624;2023-08-24T00:18:52;6.29;;;3.56;;
60336;SDS011;46978;50.288;28.624;2023-08-24T00:19:53;5.74;;;3.91;;
60336;SDS011;46978;50.288;28.624;2023-08-24T00:20:55;6.01;;;3.78;;
60336;SDS011;46978;50.288;28.624;2023-08-24T00:21:56;6.84;;;3.99;;
60336;SDS011;46978;50.288;28.624;2023-08-24T00:22:58;7.01;;;3.71;;
60336;SDS011;46978;50.288;28.624;2023-08-24T00:24:00;8.68;;;3.91;;
60336;SDS011;46978;50.288;28.624;2023-08-24T00:25:02;6.30;;;3.96;;
60336;SDS011;46978;50.288;28.624;2023-08-24T00:26:04;7.19;;;4.11;;
60336;SDS011;46978;50.288;28.624;2023-08-24T00:27:06;7.62;;;3.40;;
60336;SDS011;46978;50.288;28.624;2023-08-24T00:28:08;6.99;;;4.20;;
60336;SDS011;46978;50.288;28.624;2023-08-24T00:29:10;6.61;;;3.78;;
60336;SDS011;46978;50.288;28.624;2023-08-24T00:30:11;6.66;;;4.52;;
60336;SDS011;46978;50.288;28.624;2023-08-24T00:31:15;6.80;;;4.15;;
60336;SDS011;46978;50.288;28.624;2023-08-24T00:32:17;6.51;;;3.88;;
60336;SDS011;46978;50.288;28.624;2023-08-24T00:33:18;6.86;;;4.17;;
60336;SDS011;46978;50.288;28.624;2023-08-24T00:34:20;7.58;;;4.17;;
60336;SDS011;46978;50.288;28.624;2023-08-24T00:35:22;9.71;;;4.10;;
60336;SDS011;46978;50.288;28.624;2023-08-24T00:36:24;8.52;;;3.98;;
60336;SDS011;46978;50.288;28.624;2023-08-24T00:37:25;7.09;;;4.41;;
60336;SDS011;46978;50.288;28.624;2023-08-24T00:38:27;7.22;;;4.04;;
60336;SDS011;46978;50.288;28.624;2023-08-24T00:39:29;8.95;;;3.97;;
60336;SDS011;46978;50.288;28.624;2023-08-24T00:40:31;8.44;;;4.23;;
60336;SDS011;46978;50.288;28.624;2023-08-24T00:41:32;11.03;;;4.26;;
60336;SDS011;46978;50.288;28.624;2023-08-24T00:42:42;5.93;;;3.85;;
60336;SDS011;46978;50.288;28.624;2023-08-24T00:43:41;7.42;;;4.24;;
60336;SDS011;46978;50.288;28.624;2023-08-24T00:44:43;7.35;;;3.88;;
60336;SDS011;46978;50.288;28.624;2023-08-24T00:45:45;8.05;;;4.36;;
60336;SDS011;46978;50.288;28.624;2023-08-24T00:46:46;6.63;;;4.01;;
60336;SDS011;46978;50.288;28.624;2023-08-24T00:47:48;7.50;;;4.23;;
60336;SDS011;46978;50.288;28.624;2023-08-24T00:48:51;6.89;;;4.23;;
60336;SDS011;46978;50.288;28.624;2023-08-24T00:49:52;6.84;;;4.06;;
60336;SDS011;46978;50.288;28.624;2023-08-24T00:51:01;10.23;;;4.39;;
60336;SDS011;46978;50.288;28.624;2023-08-24T00:52:03;9.16;;;4.87;;
60336;SDS011;46978;50.288;28.624;2023-08-24T00:53:05;7.44;;;4.25;;
60336;SDS011;46978;50.288;28.624;2023-08-24T00:54:08;8.16;;;4.33;;
60336;SDS011;46978;50.288;28.624;2023-08-24T00:55:10;7.39;;;4.69;;
60336;SDS011;46978;50.288;28.624;2023-08-24T00:56:12;7.83;;;4.51;;
60336;SDS011;46978;50.288;28.624;2023-08-24T00:57:14;6.89;;;4.13;;
60336;SDS011;46978;50.288;28.624;2023-08-24T00:58:16;7.43;;;4.23;;
60336;SDS011;46978;50.288;28.624;2023-08-24T00:59:18;6.68;;;4.30;;
60336;SDS011;46978;50.288;28.624;2023-08-24T01:00:20;8.25;;;4.27;;
60336;SDS011;46978;50.288;28.624;2023-08-24T01:01:23;9.68;;;4.72;;
60336;SDS011;46978;50.288;28.624;2023-08-24T01:02:25;7.71;;;4.74;;
60336;SDS011;46978;50.288;28.624;2023-08-24T01:03:27;6.63;;;4.11;;
60336;SDS011;46978;50.288;28.624;2023-08-24T01:04:28;6.98;;;4.45;;
60336;SDS011;46978;50.288;28.624;2023-08-24T01:05:30;9.10;;;4.35;;
60336;SDS011;46978;50.288;28.624;2023-08-24T01:06:32;7.47;;;4.56;;
60336;SDS011;46978;50.288;28.624;2023-08-24T01:07:34;6.40;;;3.96;;
60336;SDS011;46978;50.288;28.624;2023-08-24T01:08:38;8.73;;;4.02;;
60336;SDS011;46978;50.288;28.624;2023-08-24T01:09:40;8.83;;;4.19;;
60336;SDS011;46978;50.288;28.624;2023-08-24T01:10:52;6.41;;;4.13;;
60336;SDS011;46978;50.288;28.624;2023-08-24T01:13:25;9.51;;;4.28;;
60336;SDS011;46978;50.288;28.624;2023-08-24T01:14:28;7.86;;;4.29;;
60336;SDS011;46978;50.288;28.624;2023-08-24T01:15:51;9.62;;;4.44;;
60336;SDS011;46978;50.288;28.624;2023-08-24T01:16:55;7.28;;;3.94;;
60336;SDS011;46978;50.288;28.624;2023-08-24T01:18:01;9.02;;;4.27;;
60336;SDS011;46978;50.288;28.624;2023-08-24T01:19:05;8.66;;;4.57;;
60336;SDS011;46978;50.288;28.624;2023-08-24T01:20:10;8.12;;;4.19;;
60336;SDS011;46978;50.288;28.624;2023-08-24T01:21:15;7.29;;;4.35;;
60336;SDS011;46978;50.288;28.624;2023-08-24T01:22:23;7.53;;;4.67;;
60336;SDS011;46978;50.288;28.624;2023-08-24T01:24:47;7.97;;;4.86;;
60336;SDS011;46978;50.288;28.624;2023-08-24T01:27:15;7.99;;;4.54;;
60336;SDS011;46978;50.288;28.624;2023-08-24T01:28:18;9.01;;;4.83;;
60336;SDS011;46978;50.288;28.624;2023-08-24T01:29:21;9.28;;;4.59;;
60336;SDS011;46978;50.288;28.624;2023-08-24T01:30:23;8.93;;;4.59;;
60336;SDS011;46978;50.288;28.624;2023-08-24T01:31:25;9.22;;;5.02;;
60336;SDS011;46978;50.288;28.624;2023-08-24T01:32:27;7.88;;;4.91;;
60336;SDS011;46978;50.288;28.624;2023-08-24T01:33:34;8.97;;;4.39;;
60336;SDS011;46978;50.288;28.624;2023-08-24T01:34:36;6.35;;;4.40;;
60336;SDS011;46978;50.288;28.624;2023-08-24T01:35:39;7.71;;;4.25;;
60336;SDS011;46978;50.288;28.624;2023-08-24T01:36:43;7.56;;;4.89;;
60336;SDS011;46978;50.288;28.624;2023-08-24T01:37:45;9.21;;;4.74;;
60336;SDS011;46978;50.288;28.624;2023-08-24T01:38:49;8.51;;;4.66;;
60336;SDS011;46978;50.288;28.624;2023-08-24T01:40:13;7.18;;;4.34;;
60336;SDS011;46978;50.288;28.624;2023-08-24T01:42:26;9.32;;;5.05;;
60336;SDS011;46978;50.288;28.624;2023-08-24T01:43:31;8.07;;;4.33;;
60336;SDS011;46978;50.288;28.624;2023-08-24T01:44:37;7.96;;;4.54;;
60336;SDS011;46978;50.288;28.624;2023-08-24T01:45:41;6.33;;;4.43;;
60336;SDS011;46978;50.288;28.624;2023-08-24T01:46:45;8.32;;;5.24;;
60336;SDS011;46978;50.288;28.624;2023-08-24T01:47:49;7.87;;;4.63;;
60336;SDS011;46978;50.288;28.624;2023-08-24T01:48:53;7.12;;;4.69;;
60336;SDS011;46978;50.288;28.624;2023-08-24T01:49:57;9.12;;;5.36;;
60336;SDS011;46978;50.288;28.624;2023-08-24T01:50:59;9.31;;;5.17;;
60336;SDS011;46978;50.288;28.624;2023-08-24T01:52:02;7.61;;;4.59;;
60336;SDS011;46978;50.288;28.624;2023-08-24T01:53:04;8.59;;;4.45;;
60336;SDS011;46978;50.288;28.624;2023-08-24T01:54:06;8.64;;;4.81;;
60336;SDS011;46978;50.288;28.624;2023-08-24T01:55:08;10.41;;;4.72;;
60336;SDS011;46978;50.288;28.624;2023-08-24T01:56:11;7.85;;;4.39;;
60336;SDS011;46978;50.288;28.624;2023-08-24T01:57:13;13.13;;;4.59;;
60336;SDS011;46978;50.288;28.624;2023-08-24T01:58:15;10.54;;;4.99;;
60336;SDS011;46978;50.288;28.624;2023-08-24T01:59:17;8.30;;;4.57;;
60336;SDS011;46978;50.288;28.624;2023-08-24T02:00:18;8.09;;;4.97;;
60336;SDS011;46978;50.288;28.624;2023-08-24T02:01:20;10.24;;;4.39;;
60336;SDS011;46978;50.288;28.624;2023-08-24T02:02:23;10.94;;;4.99;;
60336;SDS011;46978;50.288;28.624;2023-08-24T02:03:25;8.67;;;4.56;;
60336;SDS011;46978;50.288;28.624;2023-08-24T02:04:26;7.03;;;4.41;;
60336;SDS011;46978;50.288;28.624;2023-08-24T02:05:28;6.58;;;4.44;;
60336;SDS011;46978;50.288;28.624;2023-08-24T02:06:30;12.91;;;4.73;;
60336;SDS011;46978;50.288;28.624;2023-08-24T02:07:32;9.37;;;4.40;;
60336;SDS011;46978;50.288;28.624;2023-08-24T02:08:33;7.91;;;4.71;;
60336;SDS011;46978;50.288;28.624;2023-08-24T02:09:35;9.53;;;5.19;;
60336;SDS011;46978;50.288;28.624;2023-08-24T02:10:37;8.32;;;4.62;;
60336;SDS011;46978;50.288;28.624;2023-08-24T02:11:39;8.21;;;4.36;;
60336;SDS011;46978;50.288;28.624;2023-08-24T02:12:40;10.18;;;4.59;;
60336;SDS011;46978;50.288;28.624;2023-08-24T02:13:42;8.04;;;4.39;;
60336;SDS011;46978;50.288;28.624;2023-08-24T02:14:43;12.13;;;4.74;;
60336;SDS011;46978;50.288;28.624;2023-08-24T02:15:45;8.11;;;4.54;;
60336;SDS011;46978;50.288;28.624;2023-08-24T02:16:47;7.09;;;4.18;;
60336;SDS011;46978;50.288;28.624;2023-08-24T02:17:48;8.81;;;4.71;;
60336;SDS011;46978;50.288;28.624;2023-08-24T02:18:50;9.00;;;5.12;;
60336;SDS011;46978;50.288;28.624;2023-08-24T02:19:52;8.70;;;4.63;;
60336;SDS011;46978;50.288;28.624;2023-08-24T02:20:54;10.85;;;4.91;;
60336;SDS011;46978;50.288;28.624;2023-08-24T02:21:55;8.76;;;4.59;;
60336;SDS011;46978;50.288;28.624;2023-08-24T02:22:57;8.97;;;4.55;;
60336;SDS011;46978;50.288;28.624;2023-08-24T02:23:59;8.15;;;4.80;;
60336;SDS011;46978;50.288;28.624;2023-08-24T02:25:00;9.26;;;4.70;;
60336;SDS011;46978;50.288;28.624;2023-08-24T02:26:02;9.04;;;4.84;;
60336;SDS011;46978;50.288;28.624;2023-08-24T02:27:04;10.49;;;5.15;;
60336;SDS011;46978;50.288;28.624;2023-08-24T02:28:06;9.15;;;4.51;;
60336;SDS011;46978;50.288;28.624;2023-08-24T02:29:08;10.06;;;5.25;;
60336;SDS011;46978;50.288;28.624;2023-08-24T02:30:10;15.12;;;5.55;;
60336;SDS011;46978;50.288;28.624;2023-08-24T02:31:12;13.86;;;5.36;;
60336;SDS011;46978;50.288;28.624;2023-08-24T02:32:14;12.72;;;5.41;;
60336;SDS011;46978;50.288;28.624;2023-08-24T02:33:15;10.80;;;5.05;;
60336;SDS011;46978;50.288;28.624;2023-08-24T02:34:17;12.60;;;5.05;;
60336;SDS011;46978;50.288;28.624;2023-08-24T02:35:19;14.86;;;5.05;;
60336;SDS011;46978;50.288;28.624;2023-08-24T02:36:21;13.64;;;6.01;;
60336;SDS011;46978;50.288;28.624;2023-08-24T02:37:23;13.09;;;4.87;;
60336;SDS011;46978;50.288;28.624;2023-08-24T02:38:25;11.46;;;5.05;;
60336;SDS011;46978;50.288;28.624;2023-08-24T02:39:27;12.16;;;4.95;;
60336;SDS011;46978;50.288;28.624;2023-08-24T02:40:28;9.50;;;4.84;;
60336;SDS011;46978;50.288;28.624;2023-08-24T02:41:30;9.39;;;4.24;;
60336;SDS011;46978;50.288;28.624;2023-08-24T02:42:32;14.91;;;5.02;;
60336;SDS011;46978;50.288;28.624;2023-08-24T02:43:34;7.31;;;5.02;;
60336;SDS011;46978;50.288;28.624;2023-08-24T02:44:36;7.54;;;4.76;;
60336;SDS011;46978;50.288;28.624;2023-08-24T02:45:38;8.59;;;4.86;;
60336;SDS011;46978;50.288;28.624;2023-08-24T02:46:39;7.46;;;4.84;;
60336;SDS011;46978;50.288;28.624;2023-08-24T02:47:41;11.31;;;5.02;;
60336;SDS011;46978;50.288;28.624;2023-08-24T02:48:43;10.44;;;5.47;;
60336;SDS011;46978;50.288;28.624;2023-08-24T02:49:44;9.81;;;5.47;;
60336;SDS011;46978;50.288;28.624;2023-08-24T02:50:46;10.16;;;5.38;;
60336;SDS011;46978;50.288;28.624;2023-08-24T02:51:48;7.74;;;5.06;;
60336;SDS011;46978;50.288;28.624;2023-08-24T02:52:49;9.78;;;4.81;;
60336;SDS011;46978;50.288;28.624;2023-08-24T02:53:51;9.14;;;5.19;;
60336;SDS011;46978;50.288;28.624;2023-08-24T02:54:53;10.24;;;5.06;;
60336;SDS011;46978;50.288;28.624;2023-08-24T02:55:55;9.39;;;5.06;;
60336;SDS011;46978;50.288;28.624;2023-08-24T02:56:57;11.82;;;6.08;;
60336;SDS011;46978;50.288;28.624;2023-08-24T02:57:59;9.79;;;5.44;;
60336;SDS011;46978;50.288;28.624;2023-08-24T02:59:01;8.97;;;5.27;;
60336;SDS011;46978;50.288;28.624;2023-08-24T03:00:03;12.05;;;5.51;;
60336;SDS011;46978;50.288;28.624;2023-08-24T03:01:06;8.66;;;5.47;;
60336;SDS011;46978;50.288;28.624;2023-08-24T03:02:08;9.93;;;6.15;;
60336;SDS011;46978;50.288;28.624;2023-08-24T03:03:10;8.46;;;5.00;;
60336;SDS011;46978;50.288;28.624;2023-08-24T03:04:11;9.74;;;5.56;;
60336;SDS011;46978;50.288;28.624;2023-08-24T03:05:13;8.45;;;5.24;;
60336;SDS011;46978;50.288;28.624;2023-08-24T03:06:15;8.57;;;4.97;;
60336;SDS011;46978;50.288;28.624;2023-08-24T03:07:17;9.59;;;4.87;;
60336;SDS011;46978;50.288;28.624;2023-08-24T03:08:18;8.33;;;5.10;;
60336;SDS011;46978;50.288;28.624;2023-08-24T03:09:20;9.17;;;4.77;;
60336;SDS011;46978;50.288;28.624;2023-08-24T03:10:22;10.50;;;5.38;;
60336;SDS011;46978;50.288;28.624;2023-08-24T03:11:23;9.61;;;5.09;;
60336;SDS011;46978;50.288;28.624;2023-08-24T03:12:25;9.05;;;5.25;;
60336;SDS011;46978;50.288;28.624;2023-08-24T03:13:27;10.66;;;5.29;;
60336;SDS011;46978;50.288;28.624;2023-08-24T03:14:29;8.68;;;4.87;;
60336;SDS011;46978;50.288;28.624;2023-08-24T03:15:31;10.74;;;4.91;;
60336;SDS011;46978;50.288;28.624;2023-08-24T03:16:33;8.60;;;5.34;;
60336;SDS011;46978;50.288;28.624;2023-08-24T03:17:35;7.70;;;4.69;;
60336;SDS011;46978;50.288;28.624;2023-08-24T03:18:37;7.19;;;4.48;;
60336;SDS011;46978;50.288;28.624;2023-08-24T03:19:38;10.17;;;4.44;;
60336;SDS011;46978;50.288;28.624;2023-08-24T03:20:40;6.86;;;4.60;;
60336;SDS011;46978;50.288;28.624;2023-08-24T03:21:42;7.63;;;5.05;;
60336;SDS011;46978;50.288;28.624;2023-08-24T03:22:44;8.73;;;5.16;;
60336;SDS011;46978;50.288;28.624;2023-08-24T03:23:46;11.20;;;5.19;;
60336;SDS011;46978;50.288;28.624;2023-08-24T03:24:47;7.54;;;4.59;;
60336;SDS011;46978;50.288;28.624;2023-08-24T03:25:49;8.27;;;4.76;;
60336;SDS011;46978;50.288;28.624;2023-08-24T03:26:51;9.24;;;4.97;;
60336;SDS011;46978;50.288;28.624;2023-08-24T03:27:53;11.64;;;4.89;;
60336;SDS011;46978;50.288;28.624;2023-08-24T03:28:54;7.10;;;4.69;;
60336;SDS011;46978;50.288;28.624;2023-08-24T03:29:56;9.21;;;4.79;;
60336;SDS011;46978;50.288;28.624;2023-08-24T03:30:58;9.61;;;4.95;;
60336;SDS011;46978;50.288;28.624;2023-08-24T03:31:59;7.83;;;4.29;;
60336;SDS011;46978;50.288;28.624;2023-08-24T03:33:01;8.20;;;4.97;;
60336;SDS011;46978;50.288;28.624;2023-08-24T03:34:03;8.77;;;4.31;;
60336;SDS011;46978;50.288;28.624;2023-08-24T03:35:05;10.03;;;4.59;;
60336;SDS011;46978;50.288;28.624;2023-08-24T03:36:07;8.09;;;4.33;;
60336;SDS011;46978;50.288;28.624;2023-08-24T03:37:09;8.19;;;4.50;;
60336;SDS011;46978;50.288;28.624;2023-08-24T03:38:10;9.16;;;4.99;;
60336;SDS011;46978;50.288;28.624;2023-08-24T03:39:12;9.66;;;4.81;;
60336;SDS011;46978;50.288;28.624;2023-08-24T03:40:14;9.00;;;4.18;;
60336;SDS011;46978;50.288;28.624;2023-08-24T03:41:16;7.62;;;4.42;;
60336;SDS011;46978;50.288;28.624;2023-08-24T03:42:17;8.80;;;5.09;;
60336;SDS011;46978;50.288;28.624;2023-08-24T03:43:19;8.41;;;4.81;;
60336;SDS011;46978;50.288;28.624;2023-08-24T03:44:21;8.29;;;4.62;;
60336;SDS011;46978;50.288;28.624;2023-08-24T03:45:23;11.61;;;5.43;;
60336;SDS011;46978;50.288;28.624;2023-08-24T03:46:25;8.72;;;4.91;;
60336;SDS011;46978;50.288;28.624;2023-08-24T03:47:26;8.88;;;4.91;;
60336;SDS011;46978;50.288;28.624;2023-08-24T03:48:28;9.61;;;4.96;;
60336;SDS011;46978;50.288;28.624;2023-08-24T03:49:30;10.09;;;5.69;;
60336;SDS011;46978;50.288;28.624;2023-08-24T03:50:31;11.83;;;5.63;;
60336;SDS011;46978;50.288;28.624;2023-08-24T03:51:33;11.06;;;5.52;;
60336;SDS011;46978;50.288;28.624;2023-08-24T03:52:35;7.54;;;5.31;;
60336;SDS011;46978;50.288;28.624;2023-08-24T03:53:36;7.84;;;5.19;;
60336;SDS011;46978;50.288;28.624;2023-08-24T03:54:38;8.94;;;4.76;;
60336;SDS011;46978;50.288;28.624;2023-08-24T03:55:40;13.24;;;5.40;;
60336;SDS011;46978;50.288;28.624;2023-08-24T03:56:42;9.43;;;4.94;;
60336;SDS011;46978;50.288;28.624;2023-08-24T03:57:43;8.76;;;5.05;;
60336;SDS011;46978;50.288;28.624;2023-08-24T03:58:45;11.99;;;5.45;;
60336;SDS011;46978;50.288;28.624;2023-08-24T03:59:47;8.54;;;4.97;;
60336;SDS011;46978;50.288;28.624;2023-08-24T04:00:49;9.07;;;4.75;;
60336;SDS011;46978;50.288;28.624;2023-08-24T04:01:50;7.75;;;4.33;;
60336;SDS011;46978;50.288;28.624;2023-08-24T04:02:52;8.74;;;4.76;;
60336;SDS011;46978;50.288;28.624;2023-08-24T04:03:54;11.59;;;4.40;;
60336;SDS011;46978;50.288;28.624;2023-08-24T04:04:55;8.19;;;4.04;;
60336;SDS011;46978;50.288;28.624;2023-08-24T04:05:57;7.53;;;4.39;;
60336;SDS011;46978;50.288;28.624;2023-08-24T04:06:59;6.93;;;4.33;;
60336;SDS011;46978;50.288;28.624;2023-08-24T04:08:00;9.24;;;4.40;;
60336;SDS011;46978;50.288;28.624;2023-08-24T04:09:03;11.46;;;4.26;;
60336;SDS011;46978;50.288;28.624;2023-08-24T04:10:07;13.56;;;4.71;;
60336;SDS011;46978;50.288;28.624;2023-08-24T04:11:09;10.56;;;4.82;;
60336;SDS011;46978;50.288;28.624;2023-08-24T04:12:11;10.84;;;4.75;;
60336;SDS011;46978;50.288;28.624;2023-08-24T04:13:13;9.61;;;4.25;;
60336;SDS011;46978;50.288;28.624;2023-08-24T04:14:14;10.75;;;4.64;;
60336;SDS011;46978;50.288;28.624;2023-08-24T04:15:16;9.64;;;4.75;;
60336;SDS011;46978;50.288;28.624;2023-08-24T04:16:18;12.76;;;4.74;;
60336;SDS011;46978;50.288;28.624;2023-08-24T04:17:19;9.04;;;3.95;;
60336;SDS011;46978;50.288;28.624;2023-08-24T04:18:21;7.88;;;4.43;;
60336;SDS011;46978;50.288;28.624;2023-08-24T04:19:22;12.04;;;4.49;;
60336;SDS011;46978;50.288;28.624;2023-08-24T04:20:24;8.82;;;4.10;;
60336;SDS011;46978;50.288;28.624;2023-08-24T04:21:26;9.44;;;4.51;;
60336;SDS011;46978;50.288;28.624;2023-08-24T04:22:28;8.89;;;4.27;;
60336;SDS011;46978;50.288;28.624;2023-08-24T04:23:29;11.05;;;4.64;;
60336;SDS011;46978;50.288;28.624;2023-08-24T04:24:31;9.44;;;4.60;;
60336;SDS011;46978;50.288;28.624;2023-08-24T04:25:33;8.91;;;4.55;;
60336;SDS011;46978;50.288;28.624;2023-08-24T04:26:35;7.51;;;4.43;;
60336;SDS011;46978;50.288;28.624;2023-08-24T04:27:36;10.21;;;4.28;;
60336;SDS011;46978;50.288;28.624;2023-08-24T04:28:38;9.16;;;4.19;;
60336;SDS011;46978;50.288;28.624;2023-08-24T04:29:40;9.06;;;4.50;;
60336;SDS011;46978;50.288;28.624;2023-08-24T04:30:51;10.44;;;4.61;;
60336;SDS011;46978;50.288;28.624;2023-08-24T04:31:52;10.19;;;4.33;;
60336;SDS011;46978;50.288;28.624;2023-08-24T04:32:54;10.18;;;4.77;;
60336;SDS011;46978;50.288;28.624;2023-08-24T04:33:55;8.06;;;4.31;;
60336;SDS011;46978;50.288;28.624;2023-08-24T04:34:57;7.39;;;3.67;;
60336;SDS011;46978;50.288;28.624;2023-08-24T04:35:59;10.01;;;4.19;;
60336;SDS011;46978;50.288;28.624;2023-08-24T04:37:00;7.89;;;3.96;;
60336;SDS011;46978;50.288;28.624;2023-08-24T04:38:02;6.55;;;4.35;;
60336;SDS011;46978;50.288;28.624;2023-08-24T04:39:04;8.08;;;4.57;;
60336;SDS011;46978;50.288;28.624;2023-08-24T04:40:07;10.13;;;4.31;;
60336;SDS011;46978;50.288;28.624;2023-08-24T04:41:09;7.81;;;4.42;;
60336;SDS011;46978;50.288;28.624;2023-08-24T04:42:11;9.58;;;4.72;;
60336;SDS011;46978;50.288;28.624;2023-08-24T04:43:12;11.55;;;4.29;;
60336;SDS011;46978;50.288;28.624;2023-08-24T04:44:14;14.43;;;4.18;;
60336;SDS011;46978;50.288;28.624;2023-08-24T04:45:16;10.36;;;4.51;;
60336;SDS011;46978;50.288;28.624;2023-08-24T04:46:17;14.41;;;4.59;;
60336;SDS011;46978;50.288;28.624;2023-08-24T04:47:19;9.24;;;4.58;;
60336;SDS011;46978;50.288;28.624;2023-08-24T04:48:21;7.99;;;4.41;;
60336;SDS011;46978;50.288;28.624;2023-08-24T04:49:24;8.14;;;4.44;;
60336;SDS011;46978;50.288;28.624;2023-08-24T04:50:25;13.17;;;4.53;;
60336;SDS011;46978;50.288;28.624;2023-08-24T04:51:27;11.01;;;4.27;;
60336;SDS011;46978;50.288;28.624;2023-08-24T04:52:29;10.19;;;4.21;;
60336;SDS011;46978;50.288;28.624;2023-08-24T04:53:30;8.18;;;4.08;;
60336;SDS011;46978;50.288;28.624;2023-08-24T04:54:32;9.96;;;4.22;;
60336;SDS011;46978;50.288;28.624;2023-08-24T04:55:34;8.69;;;4.09;;
60336;SDS011;46978;50.288;28.624;2023-08-24T04:56:36;8.71;;;4.38;;
60336;SDS011;46978;50.288;28.624;2023-08-24T04:57:38;11.01;;;4.34;;
60336;SDS011;46978;50.288;28.624;2023-08-24T04:58:40;8.15;;;4.55;;
60336;SDS011;46978;50.288;28.624;2023-08-24T04:59:41;7.84;;;4.19;;
60336;SDS011;46978;50.288;28.624;2023-08-24T05:00:43;8.08;;;4.23;;
60336;SDS011;46978;50.288;28.624;2023-08-24T05:01:45;9.64;;;4.07;;
60336;SDS011;46978;50.288;28.624;2023-08-24T05:02:47;8.91;;;4.14;;
60336;SDS011;46978;50.288;28.624;2023-08-24T05:03:48;8.54;;;4.28;;
60336;SDS011;46978;50.288;28.624;2023-08-24T05:04:50;9.66;;;4.09;;
60336;SDS011;46978;50.288;28.624;2023-08-24T05:05:52;6.58;;;4.01;;
60336;SDS011;46978;50.288;28.624;2023-08-24T05:06:53;10.25;;;3.64;;
60336;SDS011;46978;50.288;28.624;2023-08-24T05:07:55;6.83;;;3.95;;
60336;SDS011;46978;50.288;28.624;2023-08-24T05:08:57;7.88;;;4.51;;
60336;SDS011;46978;50.288;28.624;2023-08-24T05:09:59;12.20;;;4.67;;
60336;SDS011;46978;50.288;28.624;2023-08-24T05:11:01;9.23;;;4.62;;
60336;SDS011;46978;50.288;28.624;2023-08-24T05:12:03;9.56;;;5.16;;
60336;SDS011;46978;50.288;28.624;2023-08-24T05:13:05;12.60;;;4.75;;
60336;SDS011;46978;50.288;28.624;2023-08-24T05:14:06;16.17;;;5.65;;
60336;SDS011;46978;50.288;28.624;2023-08-24T05:15:08;14.34;;;5.41;;
60336;SDS011;46978;50.288;28.624;2023-08-24T05:16:12;11.78;;;5.25;;
60336;SDS011;46978;50.288;28.624;2023-08-24T05:17:14;10.55;;;5.49;;
60336;SDS011;46978;50.288;28.624;2023-08-24T05:18:16;9.80;;;5.73;;
60336;SDS011;46978;50.288;28.624;2023-08-24T05:19:17;13.34;;;5.22;;
60336;SDS011;46978;50.288;28.624;2023-08-24T05:20:19;10.26;;;5.04;;
60336;SDS011;46978;50.288;28.624;2023-08-24T05:21:21;14.69;;;5.31;;
60336;SDS011;46978;50.288;28.624;2023-08-24T05:22:23;12.14;;;5.17;;
60336;SDS011;46978;50.288;28.624;2023-08-24T05:23:24;11.59;;;5.17;;
60336;SDS011;46978;50.288;28.624;2023-08-24T05:24:26;13.87;;;4.84;;
60336;SDS011;46978;50.288;28.624;2023-08-24T05:25:27;10.09;;;4.97;;
60336;SDS011;46978;50.288;28.624;2023-08-24T05:26:30;16.53;;;5.00;;
60336;SDS011;46978;50.288;28.624;2023-08-24T05:27:32;11.85;;;4.75;;
60336;SDS011;46978;50.288;28.624;2023-08-24T05:28:34;10.71;;;5.19;;
60336;SDS011;46978;50.288;28.624;2023-08-24T05:29:35;9.98;;;4.59;;
60336;SDS011;46978;50.288;28.624;2023-08-24T05:30:37;11.25;;;4.24;;
60336;SDS011;46978;50.288;28.624;2023-08-24T05:31:39;7.14;;;3.74;;
60336;SDS011;46978;50.288;28.624;2023-08-24T05:32:40;8.03;;;4.16;;
60336;SDS011;46978;50.288;28.624;2023-08-24T05:33:42;9.24;;;4.10;;
60336;SDS011;46978;50.288;28.624;2023-08-24T05:34:45;9.16;;;4.01;;
60336;SDS011;46978;50.288;28.624;2023-08-24T05:35:47;7.96;;;4.04;;
60336;SDS011;46978;50.288;28.624;2023-08-24T05:36:50;8.72;;;3.79;;
60336;SDS011;46978;50.288;28.624;2023-08-24T05:37:52;9.47;;;4.13;;
60336;SDS011;46978;50.288;28.624;2023-08-24T05:38:53;9.34;;;4.34;;
60336;SDS011;46978;50.288;28.624;2023-08-24T05:39:55;9.19;;;4.03;;
60336;SDS011;46978;50.288;28.624;2023-08-24T05:40:57;8.03;;;4.12;;
60336;SDS011;46978;50.288;28.624;2023-08-24T05:41:59;6.99;;;4.29;;
60336;SDS011;46978;50.288;28.624;2023-08-24T05:43:00;8.39;;;4.49;;
60336;SDS011;46978;50.288;28.624;2023-08-24T05:44:02;9.54;;;4.51;;
60336;SDS011;46978;50.288;28.624;2023-08-24T05:45:04;8.29;;;4.90;;
60336;SDS011;46978;50.288;28.624;2023-08-24T05:46:07;11.50;;;4.62;;
60336;SDS011;46978;50.288;28.624;2023-08-24T05:47:09;9.92;;;4.64;;
60336;SDS011;46978;50.288;28.624;2023-08-24T05:48:10;10.08;;;5.79;;
60336;SDS011;46978;50.288;28.624;2023-08-24T05:49:13;15.47;;;6.96;;
60336;SDS011;46978;50.288;28.624;2023-08-24T05:50:15;13.87;;;7.26;;
60336;SDS011;46978;50.288;28.624;2023-08-24T05:51:17;15.36;;;8.59;;
60336;SDS011;46978;50.288;28.624;2023-08-24T05:52:18;15.27;;;9.14;;
60336;SDS011;46978;50.288;28.624;2023-08-24T05:53:20;16.03;;;8.44;;
60336;SDS011;46978;50.288;28.624;2023-08-24T05:54:22;12.89;;;8.74;;
60336;SDS011;46978;50.288;28.624;2023-08-24T05:55:23;13.72;;;5.53;;
60336;SDS011;46978;50.288;28.624;2023-08-24T05:56:25;13.05;;;6.17;;
60336;SDS011;46978;50.288;28.624;2023-08-24T05:57:27;15.04;;;5.29;;
60336;SDS011;46978;50.288;28.624;2023-08-24T05:58:29;12.95;;;5.14;;
60336;SDS011;46978;50.288;28.624;2023-08-24T05:59:31;10.84;;;4.81;;
60336;SDS011;46978;50.288;28.624;2023-08-24T06:00:34;9.51;;;4.69;;
60336;SDS011;46978;50.288;28.624;2023-08-24T06:01:36;12.13;;;5.78;;
60336;SDS011;46978;50.288;28.624;2023-08-24T06:02:39;12.67;;;5.19;;
60336;SDS011;46978;50.288;28.624;2023-08-24T06:03:41;10.39;;;4.33;;
60336;SDS011;46978;50.288;28.624;2023-08-24T06:04:43;7.61;;;3.85;;
60336;SDS011;46978;50.288;28.624;2023-08-24T06:05:45;7.86;;;3.64;;
60336;SDS011;46978;50.288;28.624;2023-08-24T06:06:46;9.44;;;3.83;;
60336;SDS011;46978;50.288;28.624;2023-08-24T06:07:48;8.56;;;4.29;;
60336;SDS011;46978;50.288;28.624;2023-08-24T06:08:50;12.61;;;3.65;;
60336;SDS011;46978;50.288;28.624;2023-08-24T06:09:52;10.66;;;3.79;;
60336;SDS011;46978;50.288;28.624;2023-08-24T06:10:53;6.82;;;3.47;;
60336;SDS011;46978;50.288;28.624;2023-08-24T06:11:55;10.61;;;3.99;;
60336;SDS011;46978;50.288;28.624;2023-08-24T06:12:57;10.50;;;3.28;;